sensor_id;sensor_type;location;lat;lon;timestamp;P1;durP1;ratioP1;P2;durP2;ratioP2
75112;SDS011;63692;47.338;8.520;2023-03-12T07:09:00;17.52;;;10.93;;
75112;SDS011;63692;47.338;8.520;2023-03-12T07:11:29;11.48;;;7.50;;
75112;SDS011;63692;47.338;8.520;2023-03-12T07:18:53;11.82;;;8.32;;
75112;SDS011;63692;47.338;8.520;2023-03-12T07:21:18;13.15;;;8.68;;
75112;SDS011;63692;47.338;8.520;2023-03-12T07:43:34;8.27;;;5.60;;
75112;SDS011;63692;47.338;8.520;2023-03-12T07:53:23;7.95;;;5.80;;
75112;SDS011;63692;47.338;8.520;2023-03-12T07:58:17;8.43;;;4.78;;
75112;SDS011;63692;47.338;8.520;2023-03-12T08:22:54;9.45;;;6.85;;
75112;SDS011;63692;47.338;8.520;2023-03-12T08:27:47;9.63;;;6.40;;
75112;SDS011;63692;47.338;8.520;2023-03-12T08:57:22;5.85;;;3.15;;
75112;SDS011;63692;47.338;8.520;2023-03-12T09:02:15;4.78;;;2.67;;
75112;SDS011;63692;47.338;8.520;2023-03-12T09:04:40;4.00;;;2.50;;
75112;SDS011;63692;47.338;8.520;2023-03-12T09:07:06;6.18;;;2.35;;
75112;SDS011;63692;47.338;8.520;2023-03-12T09:12:00;6.07;;;2.80;;
75112;SDS011;63692;47.338;8.520;2023-03-12T09:26:47;3.22;;;1.75;;
75112;SDS011;63692;47.338;8.520;2023-03-12T10:06:17;2.50;;;1.20;;
75112;SDS011;63692;47.338;8.520;2023-03-12T10:19:07;3.45;;;1.08;;
75112;SDS011;63692;47.338;8.520;2023-03-12T11:01:50;2.58;;;0.80;;
75112;SDS011;63692;47.338;8.520;2023-03-12T11:11:40;2.08;;;1.05;;
75112;SDS011;63692;47.338;8.520;2023-03-12T11:26:23;2.50;;;1.10;;
75112;SDS011;63692;47.338;8.520;2023-03-12T11:31:24;4.68;;;1.30;;
75112;SDS011;63692;47.338;8.520;2023-03-12T11:41:53;5.03;;;1.30;;
75112;SDS011;63692;47.338;8.520;2023-03-12T11:49:24;5.35;;;2.45;;
75112;SDS011;63692;47.338;8.520;2023-03-12T11:52:17;3.33;;;1.30;;
75112;SDS011;63692;47.338;8.520;2023-03-12T11:55:00;3.28;;;1.27;;
75112;SDS011;63692;47.338;8.520;2023-03-12T11:57:44;4.10;;;1.60;;
75112;SDS011;63692;47.338;8.520;2023-03-12T12:00:23;2.83;;;1.40;;
75112;SDS011;63692;47.338;8.520;2023-03-12T12:52:05;5.22;;;1.60;;
75112;SDS011;63692;47.338;8.520;2023-03-12T13:04:33;5.75;;;1.63;;
75112;SDS011;63692;47.338;8.520;2023-03-12T13:09:38;4.65;;;1.20;;
75112;SDS011;63692;47.338;8.520;2023-03-12T13:12:13;4.25;;;1.48;;
75112;SDS011;63692;47.338;8.520;2023-03-12T13:19:37;4.93;;;1.50;;
75112;SDS011;63692;47.338;8.520;2023-03-12T13:27:37;5.45;;;1.42;;
75112;SDS011;63692;47.338;8.520;2023-03-12T13:35:28;4.50;;;1.40;;
75112;SDS011;63692;47.338;8.520;2023-03-12T13:37:58;4.80;;;1.60;;
75112;SDS011;63692;47.338;8.520;2023-03-12T13:45:32;6.78;;;1.40;;
75112;SDS011;63692;47.338;8.520;2023-03-12T13:48:04;7.95;;;1.48;;
75112;SDS011;63692;47.338;8.520;2023-03-12T13:50:40;5.63;;;1.17;;
75112;SDS011;63692;47.338;8.520;2023-03-12T13:53:15;3.15;;;1.08;;
75112;SDS011;63692;47.338;8.520;2023-03-12T13:55:58;4.15;;;1.00;;
75112;SDS011;63692;47.338;8.520;2023-03-12T13:58:29;3.42;;;0.88;;
75112;SDS011;63692;47.338;8.520;2023-03-12T14:01:05;3.80;;;1.17;;
75112;SDS011;63692;47.338;8.520;2023-03-12T14:03:46;2.97;;;1.20;;
75112;SDS011;63692;47.338;8.520;2023-03-12T14:06:19;5.32;;;1.10;;
75112;SDS011;63692;47.338;8.520;2023-03-12T14:16:46;3.83;;;1.00;;
75112;SDS011;63692;47.338;8.520;2023-03-12T14:19:15;6.63;;;1.00;;
75112;SDS011;63692;47.338;8.520;2023-03-12T14:21:44;4.50;;;1.10;;
75112;SDS011;63692;47.338;8.520;2023-03-12T14:24:56;4.95;;;1.15;;
75112;SDS011;63692;47.338;8.520;2023-03-12T14:29:51;4.63;;;1.40;;
75112;SDS011;63692;47.338;8.520;2023-03-12T14:32:28;2.78;;;0.60;;
75112;SDS011;63692;47.338;8.520;2023-03-12T14:35:10;2.90;;;0.80;;
75112;SDS011;63692;47.338;8.520;2023-03-12T14:37:42;3.10;;;0.73;;
75112;SDS011;63692;47.338;8.520;2023-03-12T14:40:34;5.65;;;0.80;;
75112;SDS011;63692;47.338;8.520;2023-03-12T14:43:17;5.28;;;0.90;;
75112;SDS011;63692;47.338;8.520;2023-03-12T14:45:50;2.80;;;0.98;;
75112;SDS011;63692;47.338;8.520;2023-03-12T14:48:22;2.53;;;0.80;;
75112;SDS011;63692;47.338;8.520;2023-03-12T14:50:51;3.90;;;0.77;;
75112;SDS011;63692;47.338;8.520;2023-03-12T14:58:26;4.00;;;0.68;;
75112;SDS011;63692;47.338;8.520;2023-03-12T15:00:55;3.53;;;0.80;;
75112;SDS011;63692;47.338;8.520;2023-03-12T15:03:24;3.47;;;0.70;;
75112;SDS011;63692;47.338;8.520;2023-03-12T15:05:51;3.92;;;0.70;;
75112;SDS011;63692;47.338;8.520;2023-03-12T15:08:17;3.55;;;0.65;;
75112;SDS011;63692;47.338;8.520;2023-03-12T15:11:01;4.85;;;0.82;;
75112;SDS011;63692;47.338;8.520;2023-03-12T15:13:27;4.07;;;0.80;;
75112;SDS011;63692;47.338;8.520;2023-03-12T15:15:53;3.58;;;0.80;;
75112;SDS011;63692;47.338;8.520;2023-03-12T15:18:29;3.42;;;0.73;;
75112;SDS011;63692;47.338;8.520;2023-03-12T15:20:57;6.47;;;1.20;;
75112;SDS011;63692;47.338;8.520;2023-03-12T15:23:26;6.07;;;0.93;;
75112;SDS011;63692;47.338;8.520;2023-03-12T15:29:13;4.78;;;0.80;;
75112;SDS011;63692;47.338;8.520;2023-03-12T15:31:50;6.78;;;0.90;;
75112;SDS011;63692;47.338;8.520;2023-03-12T15:34:35;3.97;;;0.95;;
75112;SDS011;63692;47.338;8.520;2023-03-12T15:37:18;3.78;;;0.85;;
75112;SDS011;63692;47.338;8.520;2023-03-12T15:39:46;3.17;;;0.70;;
75112;SDS011;63692;47.338;8.520;2023-03-12T15:42:15;3.30;;;0.80;;
75112;SDS011;63692;47.338;8.520;2023-03-12T15:47:17;4.65;;;0.95;;
75112;SDS011;63692;47.338;8.520;2023-03-12T15:49:58;4.55;;;0.90;;
75112;SDS011;63692;47.338;8.520;2023-03-12T15:52:31;3.28;;;1.00;;
75112;SDS011;63692;47.338;8.520;2023-03-12T15:57:52;5.22;;;1.50;;
75112;SDS011;63692;47.338;8.520;2023-03-12T16:02:58;6.45;;;1.88;;
75112;SDS011;63692;47.338;8.520;2023-03-12T16:07:54;8.90;;;1.20;;
75112;SDS011;63692;47.338;8.520;2023-03-12T16:10:21;3.40;;;0.95;;
75112;SDS011;63692;47.338;8.520;2023-03-12T16:12:49;3.97;;;0.98;;
75112;SDS011;63692;47.338;8.520;2023-03-12T16:15:25;4.45;;;1.00;;
75112;SDS011;63692;47.338;8.520;2023-03-12T16:17:55;3.80;;;0.80;;
75112;SDS011;63692;47.338;8.520;2023-03-12T16:20:20;5.53;;;1.45;;
75112;SDS011;63692;47.338;8.520;2023-03-12T16:22:46;4.60;;;1.10;;
75112;SDS011;63692;47.338;8.520;2023-03-12T16:25:12;3.67;;;1.02;;
75112;SDS011;63692;47.338;8.520;2023-03-12T16:27:43;5.90;;;1.10;;
75112;SDS011;63692;47.338;8.520;2023-03-12T16:30:16;4.35;;;0.80;;
75112;SDS011;63692;47.338;8.520;2023-03-12T16:32:46;5.32;;;1.38;;
75112;SDS011;63692;47.338;8.520;2023-03-12T16:35:13;5.13;;;0.93;;
75112;SDS011;63692;47.338;8.520;2023-03-12T16:37:41;3.97;;;0.93;;
75112;SDS011;63692;47.338;8.520;2023-03-12T16:40:08;5.93;;;1.40;;
75112;SDS011;63692;47.338;8.520;2023-03-12T16:42:34;4.57;;;1.27;;
75112;SDS011;63692;47.338;8.520;2023-03-12T16:45:00;5.15;;;1.00;;
75112;SDS011;63692;47.338;8.520;2023-03-12T16:47:26;5.55;;;1.20;;
75112;SDS011;63692;47.338;8.520;2023-03-12T16:49:52;4.82;;;1.00;;
75112;SDS011;63692;47.338;8.520;2023-03-12T16:52:19;6.53;;;1.20;;
75112;SDS011;63692;47.338;8.520;2023-03-12T16:54:49;5.85;;;1.42;;
75112;SDS011;63692;47.338;8.520;2023-03-12T16:57:19;4.90;;;0.80;;
75112;SDS011;63692;47.338;8.520;2023-03-12T16:59:56;4.95;;;1.15;;
75112;SDS011;63692;47.338;8.520;2023-03-12T17:02:22;6.15;;;1.15;;
75112;SDS011;63692;47.338;8.520;2023-03-12T17:04:48;5.03;;;1.00;;
75112;SDS011;63692;47.338;8.520;2023-03-12T17:07:15;7.63;;;1.20;;
75112;SDS011;63692;47.338;8.520;2023-03-12T17:09:41;5.43;;;1.13;;
75112;SDS011;63692;47.338;8.520;2023-03-12T17:12:17;4.20;;;1.00;;
75112;SDS011;63692;47.338;8.520;2023-03-12T17:14:45;4.28;;;1.30;;
75112;SDS011;63692;47.338;8.520;2023-03-12T17:17:12;6.18;;;1.40;;
75112;SDS011;63692;47.338;8.520;2023-03-12T17:19:38;7.22;;;1.08;;
75112;SDS011;63692;47.338;8.520;2023-03-12T17:22:03;4.57;;;1.00;;
75112;SDS011;63692;47.338;8.520;2023-03-12T17:24:29;3.25;;;0.95;;
75112;SDS011;63692;47.338;8.520;2023-03-12T17:26:55;3.58;;;0.85;;
75112;SDS011;63692;47.338;8.520;2023-03-12T17:29:22;6.07;;;1.73;;
75112;SDS011;63692;47.338;8.520;2023-03-12T17:31:47;3.42;;;1.20;;
75112;SDS011;63692;47.338;8.520;2023-03-12T17:34:13;2.60;;;1.10;;
75112;SDS011;63692;47.338;8.520;2023-03-12T17:36:39;3.75;;;1.10;;
75112;SDS011;63692;47.338;8.520;2023-03-12T17:39:05;4.15;;;1.40;;
75112;SDS011;63692;47.338;8.520;2023-03-12T17:41:31;4.95;;;1.20;;
75112;SDS011;63692;47.338;8.520;2023-03-12T17:43:57;4.63;;;1.50;;
75112;SDS011;63692;47.338;8.520;2023-03-12T17:46:25;5.63;;;1.45;;
75112;SDS011;63692;47.338;8.520;2023-03-12T17:48:52;4.40;;;1.30;;
75112;SDS011;63692;47.338;8.520;2023-03-12T17:51:18;3.22;;;1.40;;
75112;SDS011;63692;47.338;8.520;2023-03-12T17:53:45;7.25;;;1.33;;
75112;SDS011;63692;47.338;8.520;2023-03-12T17:56:11;4.97;;;1.20;;
75112;SDS011;63692;47.338;8.520;2023-03-12T17:58:39;4.88;;;1.65;;
75112;SDS011;63692;47.338;8.520;2023-03-12T18:01:05;5.32;;;1.65;;
75112;SDS011;63692;47.338;8.520;2023-03-12T18:03:31;7.30;;;2.00;;
75112;SDS011;63692;47.338;8.520;2023-03-12T18:05:56;5.35;;;1.83;;
75112;SDS011;63692;47.338;8.520;2023-03-12T18:08:22;7.28;;;1.98;;
75112;SDS011;63692;47.338;8.520;2023-03-12T18:10:47;8.25;;;2.60;;
75112;SDS011;63692;47.338;8.520;2023-03-12T18:13:13;5.85;;;1.58;;
75112;SDS011;63692;47.338;8.520;2023-03-12T18:15:39;5.30;;;2.35;;
75112;SDS011;63692;47.338;8.520;2023-03-12T18:18:05;8.02;;;2.00;;
75112;SDS011;63692;47.338;8.520;2023-03-12T18:20:30;4.70;;;1.65;;
75112;SDS011;63692;47.338;8.520;2023-03-12T18:22:56;6.80;;;1.50;;
75112;SDS011;63692;47.338;8.520;2023-03-12T18:25:22;6.38;;;1.40;;
75112;SDS011;63692;47.338;8.520;2023-03-12T18:27:48;3.42;;;1.42;;
75112;SDS011;63692;47.338;8.520;2023-03-12T18:30:13;7.97;;;1.77;;
75112;SDS011;63692;47.338;8.520;2023-03-12T18:32:39;6.07;;;1.40;;
75112;SDS011;63692;47.338;8.520;2023-03-12T18:35:05;4.32;;;1.58;;
75112;SDS011;63692;47.338;8.520;2023-03-12T18:37:32;5.30;;;1.48;;
75112;SDS011;63692;47.338;8.520;2023-03-12T18:39:58;5.78;;;1.23;;
75112;SDS011;63692;47.338;8.520;2023-03-12T18:42:24;4.68;;;1.23;;
75112;SDS011;63692;47.338;8.520;2023-03-12T18:44:49;9.00;;;2.42;;
75112;SDS011;63692;47.338;8.520;2023-03-12T18:47:17;4.85;;;2.03;;
75112;SDS011;63692;47.338;8.520;2023-03-12T18:49:43;8.48;;;1.88;;
75112;SDS011;63692;47.338;8.520;2023-03-12T18:52:09;5.63;;;1.30;;
75112;SDS011;63692;47.338;8.520;2023-03-12T18:54:34;5.70;;;1.65;;
75112;SDS011;63692;47.338;8.520;2023-03-12T18:57:02;4.03;;;1.50;;
75112;SDS011;63692;47.338;8.520;2023-03-12T18:59:28;5.78;;;1.33;;
75112;SDS011;63692;47.338;8.520;2023-03-12T19:01:53;5.43;;;1.50;;
75112;SDS011;63692;47.338;8.520;2023-03-12T19:04:20;9.27;;;1.65;;
75112;SDS011;63692;47.338;8.520;2023-03-12T19:06:46;5.03;;;1.80;;
75112;SDS011;63692;47.338;8.520;2023-03-12T19:09:11;6.15;;;1.60;;
75112;SDS011;63692;47.338;8.520;2023-03-12T19:11:37;4.47;;;1.83;;
75112;SDS011;63692;47.338;8.520;2023-03-12T19:14:03;6.07;;;1.42;;
75112;SDS011;63692;47.338;8.520;2023-03-12T19:16:29;6.93;;;1.30;;
75112;SDS011;63692;47.338;8.520;2023-03-12T19:18:55;9.48;;;1.83;;
75112;SDS011;63692;47.338;8.520;2023-03-12T19:21:21;7.47;;;2.20;;
75112;SDS011;63692;47.338;8.520;2023-03-12T19:23:47;7.18;;;2.80;;
75112;SDS011;63692;47.338;8.520;2023-03-12T19:26:13;10.73;;;2.67;;
75112;SDS011;63692;47.338;8.520;2023-03-12T19:28:39;5.88;;;1.85;;
75112;SDS011;63692;47.338;8.520;2023-03-12T19:31:06;6.90;;;1.73;;
75112;SDS011;63692;47.338;8.520;2023-03-12T19:33:33;6.72;;;2.22;;
75112;SDS011;63692;47.338;8.520;2023-03-12T19:35:59;8.98;;;2.97;;
75112;SDS011;63692;47.338;8.520;2023-03-12T19:38:25;5.97;;;2.10;;
75112;SDS011;63692;47.338;8.520;2023-03-12T19:40:51;6.55;;;2.00;;
75112;SDS011;63692;47.338;8.520;2023-03-12T19:43:18;9.52;;;2.22;;
75112;SDS011;63692;47.338;8.520;2023-03-12T19:45:45;5.57;;;1.80;;
75112;SDS011;63692;47.338;8.520;2023-03-12T19:48:11;4.53;;;1.75;;
75112;SDS011;63692;47.338;8.520;2023-03-12T19:50:37;4.90;;;1.70;;
75112;SDS011;63692;47.338;8.520;2023-03-12T19:53:03;6.68;;;2.35;;
75112;SDS011;63692;47.338;8.520;2023-03-12T19:55:29;9.75;;;2.70;;
75112;SDS011;63692;47.338;8.520;2023-03-12T19:57:55;6.47;;;2.20;;
75112;SDS011;63692;47.338;8.520;2023-03-12T20:00:21;6.07;;;1.70;;
75112;SDS011;63692;47.338;8.520;2023-03-12T20:02:46;4.30;;;2.05;;
75112;SDS011;63692;47.338;8.520;2023-03-12T20:05:13;6.30;;;2.10;;
75112;SDS011;63692;47.338;8.520;2023-03-12T20:07:39;8.40;;;2.47;;
75112;SDS011;63692;47.338;8.520;2023-03-12T20:10:05;10.57;;;3.20;;
75112;SDS011;63692;47.338;8.520;2023-03-12T20:12:36;7.07;;;3.47;;
75112;SDS011;63692;47.338;8.520;2023-03-12T20:15:03;8.25;;;3.00;;
75112;SDS011;63692;47.338;8.520;2023-03-12T20:17:29;6.75;;;2.90;;
75112;SDS011;63692;47.338;8.520;2023-03-12T20:19:54;9.60;;;3.08;;
75112;SDS011;63692;47.338;8.520;2023-03-12T20:22:20;6.82;;;2.95;;
75112;SDS011;63692;47.338;8.520;2023-03-12T20:24:49;9.80;;;4.50;;
75112;SDS011;63692;47.338;8.520;2023-03-12T20:27:15;8.02;;;2.83;;
75112;SDS011;63692;47.338;8.520;2023-03-12T20:29:41;7.70;;;3.05;;
75112;SDS011;63692;47.338;8.520;2023-03-12T20:32:07;9.27;;;2.15;;
75112;SDS011;63692;47.338;8.520;2023-03-12T20:34:33;7.22;;;2.38;;
75112;SDS011;63692;47.338;8.520;2023-03-12T21:09:07;8.32;;;3.50;;
75112;SDS011;63692;47.338;8.520;2023-03-12T21:11:33;9.32;;;3.53;;
75112;SDS011;63692;47.338;8.520;2023-03-12T21:13:59;7.65;;;2.95;;
75112;SDS011;63692;47.338;8.520;2023-03-12T21:16:24;5.15;;;2.08;;
75112;SDS011;63692;47.338;8.520;2023-03-12T21:23:45;7.72;;;2.20;;
75112;SDS011;63692;47.338;8.520;2023-03-12T21:26:10;6.20;;;1.90;;
75112;SDS011;63692;47.338;8.520;2023-03-12T21:28:36;5.40;;;2.28;;
75112;SDS011;63692;47.338;8.520;2023-03-12T21:31:05;8.27;;;2.65;;
75112;SDS011;63692;47.338;8.520;2023-03-12T21:33:32;6.30;;;2.50;;
75112;SDS011;63692;47.338;8.520;2023-03-12T21:35:58;5.43;;;1.92;;
75112;SDS011;63692;47.338;8.520;2023-03-12T21:38:24;5.65;;;2.25;;
75112;SDS011;63692;47.338;8.520;2023-03-12T21:40:49;4.93;;;1.92;;
75112;SDS011;63692;47.338;8.520;2023-03-12T21:43:18;6.93;;;1.90;;
75112;SDS011;63692;47.338;8.520;2023-03-12T21:48:11;4.03;;;1.67;;
75112;SDS011;63692;47.338;8.520;2023-03-12T21:50:36;8.00;;;2.50;;
75112;SDS011;63692;47.338;8.520;2023-03-12T21:53:02;4.82;;;1.95;;
